Time;durP1;ratioP1;P1;durP2;ratioP2;P2;SDS_P1;SDS_P2;PMS_P1;PMS_P2;Temp;Humidity;BMP_temperature;BMP_pressure;BME280_temperature;BME280_humidity;BME280_pressure;Samples;Min_cycle;Max_cycle;Signal;HPM_P1;HPM_P2
2022/12/27 00:01:01;;;;;;;2.15;0.82;;;6.20;99.90;;;;;;4996652;28;20040;-64
2022/12/27 00:03:27;;;;;;;2.50;1.08;;;6.20;99.90;;;;;;5007101;28;20022;-63
2022/12/27 00:05:52;;;;;;;2.15;0.90;;;6.10;99.90;;;;;;4998867;28;20038;-63
2022/12/27 00:08:18;;;;;;;4.38;1.50;;;6.10;99.90;;;;;;4992804;28;20042;-63
2022/12/27 00:10:43;;;;;;;3.80;1.02;;;6.10;99.90;;;;;;5009232;28;20041;-63
2022/12/27 00:13:09;;;;;;;5.80;1.52;;;6.10;99.90;;;;;;5004458;28;20394;-63
2022/12/27 00:15:35;;;;;;;3.05;1.60;;;6.10;99.90;;;;;;5007428;28;20875;-64
2022/12/27 00:18:01;;;;;;;6.00;2.15;;;6.00;99.90;;;;;;5007336;28;20033;-62
2022/12/27 00:20:27;;;;;;;4.72;1.67;;;6.00;99.90;;;;;;5007505;28;20038;-63
2022/12/27 00:22:52;;;;;;;5.93;1.90;;;6.00;99.90;;;;;;4999535;28;20066;-64
2022/12/27 00:25:18;;;;;;;3.90;1.80;;;6.00;99.90;;;;;;4989773;28;20546;-65
2022/12/27 00:27:43;;;;;;;4.40;1.80;;;5.90;99.90;;;;;;4987779;28;20030;-62
2022/12/27 00:30:10;;;;;;;5.63;1.73;;;6.00;99.90;;;;;;4996406;28;20499;-63
2022/12/27 00:32:35;;;;;;;5.95;2.13;;;6.00;99.90;;;;;;5004974;28;20037;-63
2022/12/27 00:35:01;;;;;;;4.82;2.20;;;6.00;99.90;;;;;;5009228;28;20049;-64
2022/12/27 00:37:27;;;;;;;4.75;2.25;;;6.00;99.90;;;;;;4993006;28;20036;-63
2022/12/27 00:39:52;;;;;;;4.38;2.22;;;6.00;99.90;;;;;;5009392;28;20049;-63
2022/12/27 00:42:18;;;;;;;3.50;2.13;;;5.90;99.90;;;;;;4995995;28;20391;-62
2022/12/27 00:44:44;;;;;;;4.47;2.35;;;5.90;99.90;;;;;;5002729;28;20049;-64
2022/12/27 00:47:11;;;;;;;9.13;2.28;;;5.80;99.90;;;;;;5002290;28;20041;-65
2022/12/27 00:49:36;;;;;;;5.43;2.28;;;5.90;99.90;;;;;;5007812;28;20095;-63
2022/12/27 00:52:02;;;;;;;7.18;2.58;;;5.90;99.90;;;;;;5001197;28;20171;-63
2022/12/27 00:54:28;;;;;;;5.30;2.25;;;5.90;99.90;;;;;;5007588;28;20038;-62
2022/12/27 00:56:53;;;;;;;4.55;2.40;;;5.90;99.90;;;;;;5005171;28;20044;-63
2022/12/27 00:59:19;;;;;;;6.18;2.20;;;5.90;99.90;;;;;;5007115;28;20430;-64
2022/12/27 01:01:45;;;;;;;6.20;2.55;;;5.90;99.90;;;;;;5024256;28;20114;-64
2022/12/27 01:04:12;;;;;;;3.40;2.00;;;5.80;99.90;;;;;;5023959;28;20046;-62
2022/12/27 01:06:38;;;;;;;7.97;1.27;;;5.80;99.90;;;;;;5000823;28;20025;-65
2022/12/27 01:09:04;;;;;;;5.88;1.42;;;5.70;99.90;;;;;;5006735;28;20052;-63
2022/12/27 01:11:31;;;;;;;3.97;1.40;;;5.60;99.90;;;;;;4992065;28;20026;-64
2022/12/27 01:13:59;;;;;;;6.47;2.60;;;5.50;99.90;;;;;;4999186;28;20072;-63
2022/12/27 01:16:26;;;;;;;3.40;1.02;;;5.30;99.90;;;;;;4994213;28;20034;-64
2022/12/27 01:18:52;;;;;;;6.05;1.30;;;5.10;99.90;;;;;;4997243;28;20037;-63
2022/12/27 01:21:20;;;;;;;5.85;1.13;;;4.90;99.90;;;;;;5002686;28;20030;-63
2022/12/27 01:23:46;;;;;;;2.72;0.63;;;4.70;99.90;;;;;;5024543;28;20103;-62
2022/12/27 01:26:20;;;;;;;1.73;0.75;;;4.60;99.90;;;;;;5010875;28;20476;-63
2022/12/27 01:28:47;;;;;;;9.40;1.10;;;4.50;99.90;;;;;;4999689;28;20038;-63
2022/12/27 01:31:17;;;;;;;5.47;0.73;;;4.50;99.90;;;;;;4996161;28;20066;-63
2022/12/27 01:33:43;;;;;;;3.00;0.93;;;4.40;99.90;;;;;;4988282;28;20018;-62
2022/12/27 01:36:16;;;;;;;5.20;0.70;;;4.40;99.90;;;;;;4998813;28;20550;-63
2022/12/27 01:38:42;;;;;;;2.97;0.93;;;4.30;99.90;;;;;;5018852;28;20625;-63
2022/12/27 01:44:45;;;;;;;1.33;0.52;;;4.10;99.90;;;;;;5003143;28;20111;-63
2022/12/27 01:47:11;;;;;;;6.63;0.88;;;4.10;99.90;;;;;;5002956;28;20550;-63
2022/12/27 01:49:45;;;;;;;2.85;0.60;;;4.00;99.90;;;;;;5005380;28;20040;-63
2022/12/27 01:52:12;;;;;;;2.72;0.70;;;3.90;99.90;;;;;;4992194;28;20042;-64
2022/12/27 01:54:38;;;;;;;2.67;0.60;;;3.80;99.90;;;;;;4990012;28;20062;-64
2022/12/27 01:57:04;;;;;;;2.28;0.63;;;3.80;99.90;;;;;;5003556;28;20486;-63
2022/12/27 01:59:31;;;;;;;3.63;0.40;;;3.70;99.90;;;;;;4996283;28;20030;-64
2022/12/27 02:01:58;;;;;;;2.38;0.60;;;3.60;99.90;;;;;;5004069;28;20034;-64
2022/12/27 02:04:26;;;;;;;1.88;0.60;;;3.50;99.90;;;;;;5011793;28;20030;-63
2022/12/27 02:06:52;;;;;;;1.58;0.63;;;3.40;99.90;;;;;;4998401;28;20034;-63
2022/12/27 02:09:54;;;;;;;1.35;0.60;;;3.30;99.90;;;;;;4992473;28;20085;-63
2022/12/27 02:12:20;;;;;;;3.33;1.23;;;3.30;99.90;;;;;;4993948;28;20043;-63
2022/12/27 02:14:48;;;;;;;3.38;0.50;;;3.30;99.90;;;;;;5007825;28;20055;-63
2022/12/27 02:17:16;;;;;;;1.63;0.57;;;3.30;99.90;;;;;;4993117;28;20054;-63
2022/12/27 02:20:14;;;;;;;4.18;0.80;;;3.20;99.90;;;;;;4991110;28;20031;-64
2022/12/27 02:25:45;;;;;;;1.20;0.43;;;3.20;99.90;;;;;;5009554;28;20506;-64
2022/12/27 02:28:42;;;;;;;2.75;0.50;;;3.10;99.90;;;;;;4992141;28;20151;-63
2022/12/27 02:31:15;;;;;;;2.97;0.40;;;3.20;99.90;;;;;;5010858;28;20080;-64
2022/12/27 02:33:45;;;;;;;2.95;0.47;;;3.10;99.90;;;;;;5003313;28;20108;-63
2022/12/27 02:36:19;;;;;;;2.17;0.60;;;3.00;99.90;;;;;;4991695;28;20045;-63
2022/12/27 02:38:50;;;;;;;1.27;0.50;;;3.00;99.90;;;;;;5004065;28;20484;-63
2022/12/27 02:55:35;;;;;;;0.80;0.40;;;2.70;99.90;;;;;;4998217;28;20044;-63
2022/12/27 02:58:39;;;;;;;2.70;1.30;;;2.70;99.90;;;;;;5006447;28;20041;-63
2022/12/27 03:04:35;;;;;;;1.88;0.55;;;2.70;99.90;;;;;;5010628;28;20838;-63
2022/12/27 03:07:03;;;;;;;1.90;0.50;;;2.70;99.90;;;;;;5002340;28;20117;-63
2022/12/27 03:15:56;;;;;;;2.45;0.50;;;2.60;99.90;;;;;;4997922;28;20157;-63
2022/12/27 03:18:27;;;;;;;4.68;0.68;;;2.60;99.90;;;;;;4995845;28;20033;-64
2022/12/27 03:26:31;;;;;;;3.05;0.60;;;2.70;99.90;;;;;;5008187;28;20129;-64
2022/12/27 03:34:38;;;;;;;2.25;0.70;;;2.60;99.90;;;;;;5009995;28;20049;-64
2022/12/27 03:40:33;;;;;;;7.93;1.10;;;2.50;99.90;;;;;;5009037;28;20064;-63
2022/12/27 03:43:13;;;;;;;2.83;0.80;;;2.40;99.90;;;;;;5010934;28;20040;-63
2022/12/27 03:49:04;;;;;;;7.75;1.00;;;2.50;99.90;;;;;;4989958;28;20192;-63
2022/12/27 03:51:43;;;;;;;6.60;1.10;;;2.50;99.90;;;;;;5023500;28;20487;-64
2022/12/27 03:54:35;;;;;;;3.38;0.90;;;2.50;99.90;;;;;;5009050;28;20050;-64
2022/12/27 03:57:07;;;;;;;3.90;0.80;;;2.50;99.90;;;;;;5006163;28;20030;-63
2022/12/27 03:59:33;;;;;;;6.28;1.15;;;2.50;99.90;;;;;;5015612;28;20040;-63
2022/12/27 04:02:00;;;;;;;3.33;1.10;;;2.50;99.90;;;;;;5007312;28;20034;-63
2022/12/27 04:04:26;;;;;;;5.38;1.17;;;2.50;99.90;;;;;;5006519;28;20066;-64
2022/12/27 04:06:51;;;;;;;2.47;0.80;;;2.40;99.90;;;;;;5007915;28;20068;-62
2022/12/27 04:36:39;;;;;;;5.40;1.50;;;2.50;99.90;;;;;;4997586;28;20036;-62
2022/12/27 04:39:05;;;;;;;4.28;1.40;;;2.50;99.90;;;;;;5007986;28;20030;-63
2022/12/27 04:55:22;;;;;;;7.78;1.23;;;2.60;99.90;;;;;;4994045;28;20455;-62
2022/12/27 04:57:49;;;;;;;2.92;0.90;;;2.60;99.90;;;;;;5003043;28;20030;-63
2022/12/27 05:03:05;;;;;;;7.55;1.10;;;2.70;99.90;;;;;;4991334;28;20036;-64
2022/12/27 05:05:31;;;;;;;9.60;1.30;;;2.80;99.90;;;;;;5002566;28;20038;-63
2022/12/27 05:16:10;;;;;;;4.82;1.52;;;2.70;99.90;;;;;;4995014;28;20049;-63
2022/12/27 05:18:35;;;;;;;2.85;1.10;;;2.70;99.90;;;;;;5012985;28;20034;-64
2022/12/27 05:21:05;;;;;;;6.13;1.30;;;2.70;99.90;;;;;;5005887;28;20402;-63
2022/12/27 05:26:26;;;;;;;3.85;1.00;;;2.80;99.90;;;;;;5006591;28;20064;-63
2022/12/27 05:28:54;;;;;;;3.53;0.98;;;2.70;99.90;;;;;;4991091;28;20046;-63
2022/12/27 05:31:21;;;;;;;5.00;1.35;;;2.70;99.90;;;;;;5006389;28;20033;-62
2022/12/27 05:33:48;;;;;;;6.22;1.38;;;2.70;99.90;;;;;;5009253;28;20358;-63
2022/12/27 05:36:14;;;;;;;3.10;1.20;;;2.70;99.90;;;;;;5012881;28;20038;-64
2022/12/27 05:38:39;;;;;;;6.07;1.10;;;2.80;99.90;;;;;;5010883;28;20081;-63
2022/12/27 05:41:06;;;;;;;4.07;1.13;;;2.80;99.90;;;;;;5012658;28;20030;-63
2022/12/27 05:43:32;;;;;;;4.95;1.00;;;2.80;99.90;;;;;;5010375;28;20030;-63
2022/12/27 05:46:13;;;;;;;4.50;1.00;;;2.80;99.90;;;;;;5010467;28;20034;-61
2022/12/27 05:48:39;;;;;;;3.42;1.20;;;2.80;99.90;;;;;;5011020;28;20125;-64
2022/12/27 05:51:13;;;;;;;2.80;1.00;;;2.80;99.90;;;;;;5012607;28;20113;-63
2022/12/27 05:53:39;;;;;;;3.58;1.02;;;2.80;99.90;;;;;;5010515;28;20033;-64
2022/12/27 05:56:05;;;;;;;4.20;1.23;;;2.80;99.90;;;;;;4992864;28;20056;-63
2022/12/27 05:58:31;;;;;;;3.90;1.40;;;2.80;99.90;;;;;;4999970;28;20495;-63
2022/12/27 06:00:57;;;;;;;2.95;1.30;;;2.70;99.90;;;;;;5008818;28;20737;-63
2022/12/27 06:03:23;;;;;;;2.65;1.10;;;2.70;99.90;;;;;;5008873;28;20040;-62
2022/12/27 06:05:49;;;;;;;3.30;1.15;;;2.70;99.90;;;;;;5002121;28;20153;-63
2022/12/27 06:08:15;;;;;;;3.42;1.20;;;2.70;99.90;;;;;;4998376;28;20431;-63
2022/12/27 06:10:40;;;;;;;6.15;1.38;;;2.70;99.90;;;;;;4999462;28;20022;-63
2022/12/27 06:13:06;;;;;;;5.20;1.40;;;2.70;99.90;;;;;;4997594;28;20037;-62
2022/12/27 06:15:32;;;;;;;3.47;1.00;;;2.70;99.90;;;;;;5010879;28;20517;-63
2022/12/27 06:17:59;;;;;;;5.38;1.40;;;2.70;99.90;;;;;;5023994;28;20033;-63
2022/12/27 06:20:25;;;;;;;4.55;1.00;;;2.60;99.90;;;;;;5005428;28;20415;-63
2022/12/27 06:22:52;;;;;;;4.70;1.38;;;2.60;99.90;;;;;;4991531;28;20366;-62
2022/12/27 06:25:17;;;;;;;4.70;1.60;;;2.70;99.90;;;;;;5007914;28;20045;-63
2022/12/27 06:27:43;;;;;;;9.20;1.40;;;2.70;99.90;;;;;;5010816;28;20095;-62
2022/12/27 06:30:11;;;;;;;3.65;1.05;;;2.60;99.90;;;;;;5010585;28;20809;-63
2022/12/27 06:32:37;;;;;;;4.45;1.25;;;2.50;99.90;;;;;;5010386;28;20088;-62
2022/12/27 06:35:03;;;;;;;3.90;1.30;;;2.30;99.90;;;;;;5008602;28;20052;-62
2022/12/27 06:37:30;;;;;;;3.45;1.20;;;2.20;99.90;;;;;;5007898;28;20044;-63
2022/12/27 06:39:56;;;;;;;5.20;1.40;;;2.20;99.90;;;;;;5006906;28;20050;-63
2022/12/27 06:42:22;;;;;;;3.83;1.40;;;2.20;99.90;;;;;;4993799;28;20506;-63
2022/12/27 06:44:47;;;;;;;5.85;1.40;;;2.10;99.90;;;;;;4998130;28;20026;-62
2022/12/27 06:47:13;;;;;;;10.07;1.50;;;2.00;99.90;;;;;;5010862;28;20376;-62
2022/12/27 06:49:38;;;;;;;5.50;1.50;;;1.90;99.90;;;;;;5006566;28;20053;-64
2022/12/27 06:52:04;;;;;;;4.68;1.80;;;1.90;99.90;;;;;;4997039;28;20057;-62
2022/12/27 06:54:30;;;;;;;3.60;1.40;;;1.90;99.90;;;;;;5009850;28;20038;-62
2022/12/27 06:56:55;;;;;;;5.80;1.70;;;1.90;99.90;;;;;;5010460;28;20038;-63
2022/12/27 06:59:22;;;;;;;4.18;1.63;;;1.90;99.90;;;;;;4992216;28;20085;-63
2022/12/27 07:01:47;;;;;;;4.30;1.40;;;1.80;99.90;;;;;;5004326;28;20057;-63
2022/12/27 07:04:14;;;;;;;4.97;1.75;;;1.80;99.90;;;;;;5007693;28;20069;-63
2022/12/27 07:06:39;;;;;;;3.15;1.50;;;1.80;99.90;;;;;;5001683;28;20120;-63
2022/12/27 07:09:05;;;;;;;5.50;1.60;;;1.70;99.90;;;;;;5009632;28;20112;-61
2022/12/27 07:11:33;;;;;;;5.47;1.90;;;1.70;99.90;;;;;;5009211;28;20463;-63
2022/12/27 07:13:58;;;;;;;7.38;1.85;;;1.70;99.90;;;;;;5009892;28;20069;-62
2022/12/27 07:16:27;;;;;;;5.47;1.52;;;1.70;99.90;;;;;;5007637;28;20064;-63
2022/12/27 07:18:57;;;;;;;5.07;1.80;;;1.70;99.90;;;;;;5010676;28;20414;-63
2022/12/27 07:21:25;;;;;;;7.90;1.80;;;1.70;99.90;;;;;;5009262;28;20381;-63
2022/12/27 07:23:51;;;;;;;5.07;1.80;;;1.80;99.90;;;;;;5008021;28;20091;-63
2022/12/27 07:26:20;;;;;;;9.43;1.88;;;1.80;99.90;;;;;;5024869;28;20113;-63
2022/12/27 07:28:46;;;;;;;10.63;2.10;;;1.80;99.90;;;;;;5005579;28;20505;-63
2022/12/27 07:31:14;;;;;;;4.60;1.98;;;1.80;99.90;;;;;;4998168;28;20077;-64
2022/12/27 07:33:41;;;;;;;8.95;2.47;;;1.90;99.90;;;;;;4991245;28;20034;-62
2022/12/27 07:36:10;;;;;;;5.65;2.13;;;1.90;99.90;;;;;;5006127;28;20096;-62
2022/12/27 07:38:35;;;;;;;7.28;2.40;;;2.00;99.90;;;;;;5002040;28;20034;-63
2022/12/27 07:41:02;;;;;;;5.05;1.83;;;2.00;99.90;;;;;;4990146;28;20109;-62
2022/12/27 07:43:34;;;;;;;5.88;2.00;;;2.10;99.90;;;;;;4997820;28;20530;-61
2022/12/27 07:46:26;;;;;;;5.18;1.77;;;2.10;99.90;;;;;;5006378;28;20116;-62
2022/12/27 07:48:54;;;;;;;4.80;1.50;;;2.20;99.90;;;;;;5013179;28;20033;-61
2022/12/27 07:51:20;;;;;;;7.40;1.88;;;2.20;99.90;;;;;;4997991;28;20034;-62
2022/12/27 07:53:50;;;;;;;7.75;1.90;;;2.30;99.90;;;;;;4989395;28;20038;-62
2022/12/27 07:56:27;;;;;;;5.05;1.45;;;2.40;99.90;;;;;;4990559;28;20042;-63
2022/12/27 07:58:54;;;;;;;7.00;2.20;;;2.40;99.90;;;;;;4989981;28;20037;-63
2022/12/27 08:01:21;;;;;;;2.65;1.33;;;2.50;99.90;;;;;;4990239;28;20034;-62
2022/12/27 08:03:47;;;;;;;6.47;1.80;;;2.50;99.90;;;;;;5013457;28;20129;-62
2022/12/27 08:06:28;;;;;;;4.63;1.85;;;2.60;99.90;;;;;;5021161;28;20429;-62
2022/12/27 08:08:56;;;;;;;5.30;1.60;;;2.50;99.90;;;;;;5009268;28;20040;-62
2022/12/27 08:11:22;;;;;;;4.68;1.77;;;2.50;99.90;;;;;;5009939;28;20040;-62
2022/12/27 08:13:48;;;;;;;6.85;2.72;;;2.50;99.90;;;;;;5009040;28;20033;-63
2022/12/27 08:16:19;;;;;;;5.68;2.58;;;2.50;99.90;;;;;;5009849;28;20109;-62
2022/12/27 08:18:45;;;;;;;5.53;2.40;;;2.50;99.90;;;;;;5023023;28;20053;-64
2022/12/27 08:21:11;;;;;;;5.90;2.10;;;2.50;99.90;;;;;;5028996;28;20482;-62
2022/12/27 08:23:37;;;;;;;6.47;2.03;;;2.50;99.90;;;;;;5028978;28;20053;-61
2022/12/27 08:26:02;;;;;;;6.07;2.30;;;2.50;99.90;;;;;;5028602;28;20029;-62
2022/12/27 08:28:30;;;;;;;8.85;2.35;;;2.60;99.90;;;;;;5029454;28;20717;-62
2022/12/27 08:30:57;;;;;;;5.78;1.88;;;2.80;99.90;;;;;;5027255;28;20033;-62
2022/12/27 08:33:23;;;;;;;9.35;2.42;;;2.90;99.90;;;;;;5020850;28;20033;-63
2022/12/27 08:35:49;;;;;;;4.30;1.90;;;3.00;99.90;;;;;;5028420;28;20036;-63
2022/12/27 08:38:15;;;;;;;7.60;2.08;;;3.10;99.90;;;;;;5027842;28;20033;-61
2022/12/27 08:40:42;;;;;;;9.90;2.13;;;3.20;99.90;;;;;;5029133;28;20100;-62
2022/12/27 08:43:08;;;;;;;6.60;2.35;;;3.20;99.90;;;;;;5028344;28;20111;-62
2022/12/27 08:45:35;;;;;;;5.53;2.05;;;3.30;99.90;;;;;;5028908;28;20141;-62
2022/12/27 08:48:01;;;;;;;6.13;1.80;;;3.40;99.90;;;;;;5024840;28;20037;-62
2022/12/27 08:50:27;;;;;;;3.90;1.65;;;3.40;99.90;;;;;;5028885;28;20030;-62
2022/12/27 08:52:58;;;;;;;4.40;2.10;;;3.50;99.90;;;;;;5028183;28;20386;-62
2022/12/27 08:55:28;;;;;;;8.95;2.00;;;3.60;99.90;;;;;;5028952;28;20045;-62
2022/12/27 08:58:04;;;;;;;4.75;1.70;;;3.70;99.90;;;;;;5028130;28;20036;-63
2022/12/27 09:00:31;;;;;;;4.88;2.13;;;3.80;99.90;;;;;;5011702;28;20026;-63
2022/12/27 09:02:57;;;;;;;6.70;2.80;;;3.80;99.90;;;;;;5009968;28;20043;-63
2022/12/27 09:05:24;;;;;;;7.97;3.17;;;3.90;99.90;;;;;;5005996;28;20149;-63
2022/12/27 09:07:50;;;;;;;6.50;1.90;;;4.00;99.90;;;;;;5005842;28;20048;-63
2022/12/27 09:10:17;;;;;;;10.02;1.98;;;4.00;99.90;;;;;;4989304;28;20038;-63
2022/12/27 09:12:44;;;;;;;7.88;2.17;;;4.10;99.90;;;;;;5004985;28;20486;-62
2022/12/27 09:15:11;;;;;;;5.18;1.63;;;4.20;99.90;;;;;;4999863;28;20056;-63
2022/12/27 09:17:36;;;;;;;6.68;2.20;;;4.20;99.90;;;;;;5005329;28;20084;-63
2022/12/27 09:20:03;;;;;;;6.60;1.83;;;4.20;99.90;;;;;;5002020;28;20030;-62
2022/12/27 09:22:29;;;;;;;8.20;2.10;;;4.30;99.90;;;;;;5000691;28;20030;-63
2022/12/27 09:24:55;;;;;;;6.40;1.67;;;4.30;99.90;;;;;;4996158;28;20078;-64
2022/12/27 09:27:21;;;;;;;6.20;1.70;;;4.40;99.90;;;;;;5003080;28;20115;-63
2022/12/27 09:29:47;;;;;;;3.90;1.58;;;4.50;99.90;;;;;;4999694;28;20112;-63
2022/12/27 09:32:13;;;;;;;6.88;1.65;;;4.50;99.90;;;;;;5008186;28;20049;-64
2022/12/27 09:34:38;;;;;;;6.13;1.60;;;4.40;99.90;;;;;;5011668;28;20049;-63
2022/12/27 09:37:04;;;;;;;5.43;1.75;;;4.40;99.90;;;;;;5005753;28;20390;-65
2022/12/27 09:39:29;;;;;;;11.35;2.03;;;4.50;99.90;;;;;;4998406;28;20037;-67
2022/12/27 09:42:20;;;;;;;5.15;1.70;;;4.70;99.90;;;;;;5007653;28;20034;-66
2022/12/27 09:44:55;;;;;;;4.15;1.50;;;4.70;99.90;;;;;;5007649;28;20049;-67
2022/12/27 09:47:33;;;;;;;4.15;1.70;;;4.70;99.90;;;;;;4998608;28;20042;-67
2022/12/27 09:50:05;;;;;;;2.70;1.42;;;4.80;99.90;;;;;;5007154;28;20033;-65
2022/12/27 09:52:36;;;;;;;5.15;1.60;;;4.90;99.90;;;;;;5008675;28;20049;-64
2022/12/27 09:55:01;;;;;;;;;;;5.00;99.90;;;;;;4994876;28;20554;-67
2022/12/27 09:57:34;;;;;;;4.57;1.15;;;5.00;99.90;;;;;;4989345;28;19906;-65
2022/12/27 10:00:04;;;;;;;5.90;1.38;;;5.00;99.90;;;;;;4998117;28;20049;-65
2022/12/27 10:02:32;;;;;;;4.80;0.90;;;5.00;99.90;;;;;;5021263;28;20502;-63
2022/12/27 10:04:58;;;;;;;4.78;1.77;;;5.00;99.90;;;;;;5003766;28;20128;-66
2022/12/27 10:07:39;;;;;;;6.70;1.40;;;5.10;99.90;;;;;;5000589;28;20037;-66
2022/12/27 10:10:27;;;;;;;4.63;1.30;;;5.00;99.90;;;;;;5000861;28;20030;-65
2022/12/27 10:13:12;;;;;;;8.30;1.65;;;5.20;99.90;;;;;;4998867;28;20037;-70
2022/12/27 10:15:47;;;;;;;10.07;1.45;;;5.10;99.90;;;;;;4996187;28;20305;-65
2022/12/27 10:18:51;;;;;;;3.63;1.10;;;5.20;99.90;;;;;;5019645;28;20529;-65
2022/12/27 10:21:25;;;;;;;4.68;1.25;;;5.30;99.90;;;;;;4966687;28;20102;-66
2022/12/27 10:24:01;;;;;;;5.05;1.20;;;5.40;99.90;;;;;;5013123;28;20128;-69
2022/12/27 10:26:27;;;;;;;4.75;1.30;;;5.50;99.90;;;;;;5031422;28;20581;-67
2022/12/27 10:29:00;;;;;;;3.17;1.30;;;5.40;99.90;;;;;;5015360;28;20030;-67
2022/12/27 10:31:29;;;;;;;4.68;1.05;;;5.50;99.90;;;;;;5010676;28;20053;-66
2022/12/27 10:33:55;;;;;;;5.60;1.08;;;5.50;99.90;;;;;;5010989;28;20069;-66
2022/12/27 10:36:27;;;;;;;2.72;1.10;;;5.50;99.90;;;;;;5000610;28;20033;-68
2022/12/27 10:38:53;;;;;;;3.25;1.30;;;5.50;99.90;;;;;;5010810;28;20061;-71
2022/12/27 10:41:40;;;;;;;3.80;1.13;;;5.40;99.90;;;;;;5007366;28;20080;-66
2022/12/27 10:44:10;;;;;;;6.38;1.70;;;5.50;99.90;;;;;;4992376;28;20077;-67
2022/12/27 10:46:37;;;;;;;3.78;1.45;;;5.40;99.90;;;;;;4995583;28;20042;-63
2022/12/27 10:49:07;;;;;;;6.80;1.17;;;5.40;99.90;;;;;;5009503;28;20037;-64
2022/12/27 10:51:35;;;;;;;5.70;1.40;;;5.50;99.90;;;;;;5010348;28;20029;-65
2022/12/27 10:54:11;;;;;;;16.38;1.77;;;5.50;99.90;;;;;;5017008;28;20103;-67
2022/12/27 10:56:40;;;;;;;6.88;1.40;;;5.50;99.90;;;;;;5010844;28;20025;-65
2022/12/27 10:59:35;;;;;;;6.47;1.55;;;5.60;99.90;;;;;;5002964;28;20034;-66
2022/12/27 11:02:00;;;;;;;4.65;1.17;;;5.70;99.90;;;;;;4999924;28;20060;-67
2022/12/27 11:04:27;;;;;;;3.08;1.20;;;5.90;99.90;;;;;;5010878;28;20417;-66
2022/12/27 11:07:02;;;;;;;7.32;1.63;;;6.00;99.90;;;;;;5030736;28;20033;-72
2022/12/27 11:09:42;;;;;;;4.50;1.30;;;6.10;99.90;;;;;;5028547;28;20032;-65
2022/12/27 11:12:14;;;;;;;7.75;1.50;;;6.20;99.90;;;;;;5022703;28;20091;-66
2022/12/27 11:14:57;;;;;;;3.13;0.80;;;6.20;99.90;;;;;;5012209;28;20108;-67
2022/12/27 11:17:32;;;;;;;6.00;1.48;;;6.20;99.90;;;;;;5010783;28;20026;-66
2022/12/27 11:20:01;;;;;;;3.30;1.30;;;6.10;99.90;;;;;;5009129;28;20105;-67
2022/12/27 11:22:27;;;;;;;2.35;1.00;;;6.20;99.90;;;;;;5009578;28;20167;-66
2022/12/27 11:24:57;;;;;;;2.65;1.00;;;6.10;99.90;;;;;;4998910;28;20129;-69
2022/12/27 11:27:26;;;;;;;3.55;1.17;;;6.20;99.90;;;;;;4990874;28;20027;-64
2022/12/27 11:29:54;;;;;;;5.53;0.85;;;6.30;99.90;;;;;;4999415;28;20129;-65
2022/12/27 11:32:22;;;;;;;3.45;1.13;;;6.30;99.90;;;;;;5004957;28;20026;-66
2022/12/27 11:34:51;;;;;;;4.40;1.40;;;6.20;99.90;;;;;;5002787;28;20486;-67
2022/12/27 11:37:19;;;;;;;3.17;1.00;;;6.30;99.90;;;;;;5000929;28;20033;-66
2022/12/27 11:39:50;;;;;;;4.07;1.23;;;6.40;99.90;;;;;;5001919;28;20057;-67
2022/12/27 11:42:39;;;;;;;6.07;1.38;;;6.50;99.90;;;;;;5005971;28;20042;-70
2022/12/27 11:45:17;;;;;;;5.90;1.25;;;6.50;99.90;;;;;;4999476;28;20036;-66
2022/12/27 11:48:06;;;;;;;6.40;1.30;;;6.40;99.90;;;;;;5023861;28;20466;-65
2022/12/27 11:50:52;;;;;;;4.18;1.60;;;6.40;99.90;;;;;;5014773;28;20506;-64
2022/12/27 11:53:39;;;;;;;6.30;1.40;;;6.50;99.90;;;;;;5003139;28;20513;-66
2022/12/27 11:56:23;;;;;;;5.10;1.48;;;6.60;99.90;;;;;;5000485;28;20087;-66
2022/12/27 11:59:33;;;;;;;3.05;1.23;;;6.60;99.90;;;;;;5001579;28;20038;-66
2022/12/27 12:02:34;;;;;;;8.52;1.30;;;6.70;99.90;;;;;;4997597;28;20046;-69
2022/12/27 12:05:24;;;;;;;2.70;1.10;;;6.80;99.90;;;;;;4995456;28;20041;-66
2022/12/27 12:08:09;;;;;;;10.48;1.92;;;6.90;99.90;;;;;;5007307;28;20069;-64
2022/12/27 12:10:42;;;;;;;2.55;1.05;;;7.00;99.90;;;;;;5005868;28;20026;-68
2022/12/27 12:13:33;;;;;;;6.85;1.00;;;7.00;99.90;;;;;;4995096;28;20034;-66
2022/12/27 12:15:59;;;;;;;;;;;7.00;99.90;;;;;;5007357;28;20046;-71
2022/12/27 12:18:41;;;;;;;5.75;1.20;;;6.90;99.90;;;;;;5006973;28;19920;-67
2022/12/27 12:21:39;;;;;;;8.15;1.00;;;6.70;99.90;;;;;;5008096;28;20045;-65
2022/12/27 12:24:20;;;;;;;4.68;1.05;;;6.70;99.90;;;;;;5001427;28;20047;-65
2022/12/27 12:27:06;;;;;;;4.00;1.10;;;6.50;99.90;;;;;;4999259;28;20066;-65
2022/12/27 12:29:59;;;;;;;6.70;1.20;;;6.30;99.90;;;;;;4999366;28;20025;-67
2022/12/27 12:32:32;;;;;;;8.20;1.27;;;6.10;99.90;;;;;;4993345;28;20039;-65
2022/12/27 12:35:22;;;;;;;4.32;1.15;;;6.00;99.90;;;;;;4996450;28;20026;-70
2022/12/27 12:38:00;;;;;;;6.65;1.33;;;6.00;99.90;;;;;;4989282;28;20034;-65
2022/12/27 12:40:51;;;;;;;7.30;1.50;;;5.90;99.90;;;;;;5003738;28;20033;-67
2022/12/27 12:43:39;;;;;;;5.15;1.45;;;6.10;99.90;;;;;;5012490;28;20826;-66
2022/12/27 12:46:20;;;;;;;6.22;1.50;;;6.30;99.90;;;;;;5007460;28;20044;-65
2022/12/27 12:49:17;;;;;;;3.50;1.35;;;6.30;99.90;;;;;;4989719;28;20045;-66
2022/12/27 12:52:10;;;;;;;8.93;2.42;;;6.40;99.90;;;;;;5006686;28;20022;-65
2022/12/27 12:54:53;;;;;;;2.97;1.40;;;6.50;99.90;;;;;;5008440;28;20094;-66
2022/12/27 12:57:31;;;;;;;4.35;1.60;;;6.60;99.90;;;;;;5007714;28;20512;-66
2022/12/27 13:00:11;;;;;;;4.25;1.40;;;6.40;99.90;;;;;;5001935;28;20061;-65
2022/12/27 13:02:58;;;;;;;4.28;1.70;;;6.40;99.90;;;;;;5004412;28;20474;-66
2022/12/27 13:05:42;;;;;;;4.68;1.33;;;6.30;99.90;;;;;;4997057;28;20037;-67
2022/12/27 13:08:35;;;;;;;4.88;1.40;;;6.20;99.90;;;;;;5022339;28;20034;-69
2022/12/27 13:11:04;;;;;;;6.32;1.52;;;6.20;99.90;;;;;;4989107;28;20041;-71
2022/12/27 13:13:58;;;;;;;3.83;1.50;;;6.20;99.90;;;;;;5000082;28;20041;-69
2022/12/27 13:16:46;;;;;;;6.07;1.70;;;6.10;99.90;;;;;;5008250;28;20072;-68
2022/12/27 13:19:39;;;;;;;5.50;1.70;;;6.10;99.90;;;;;;4990679;28;20126;-65
2022/12/27 13:22:23;;;;;;;4.53;1.80;;;6.00;99.90;;;;;;4990025;28;21698;-66
2022/12/27 13:25:13;;;;;;;7.07;1.60;;;6.00;99.90;;;;;;4989375;28;20282;-66
2022/12/27 13:27:45;;;;;;;6.32;1.42;;;6.00;99.90;;;;;;5001146;28;20092;-67
2022/12/27 13:30:23;;;;;;;8.02;1.77;;;6.00;99.90;;;;;;5004826;28;20037;-66
2022/12/27 13:33:16;;;;;;;6.00;1.58;;;6.20;99.90;;;;;;5024134;28;20041;-66
2022/12/27 13:35:52;;;;;;;4.22;1.58;;;6.30;99.90;;;;;;5011125;28;20102;-67
2022/12/27 13:38:49;;;;;;;7.10;1.92;;;6.30;99.90;;;;;;5021107;28;20033;-66
2022/12/27 13:41:31;;;;;;;5.57;1.60;;;6.60;99.90;;;;;;5007887;28;20026;-66
2022/12/27 13:44:04;;;;;;;3.92;1.30;;;6.70;99.90;;;;;;5008630;28;20029;-65
2022/12/27 13:46:42;;;;;;;4.55;1.15;;;6.90;99.90;;;;;;5009304;28;20045;-65
2022/12/27 13:49:35;;;;;;;5.55;1.30;;;6.90;99.90;;;;;;5004587;28;20037;-66
2022/12/27 13:52:38;;;;;;;7.00;1.40;;;6.80;99.90;;;;;;5012001;28;20056;-70
2022/12/27 13:55:35;;;;;;;6.53;1.15;;;6.70;99.90;;;;;;4995592;28;20469;-71
2022/12/27 13:58:32;;;;;;;5.82;1.50;;;6.80;99.90;;;;;;5010125;28;20030;-71
2022/12/27 14:01:17;;;;;;;6.03;1.60;;;6.80;99.90;;;;;;5011914;28;20068;-66
2022/12/27 14:04:19;;;;;;;4.80;1.50;;;6.90;99.90;;;;;;5000738;28;20041;-65
2022/12/27 14:06:51;;;;;;;5.13;1.20;;;7.00;99.90;;;;;;5026047;28;20045;-65
2022/12/27 14:10:02;;;;;;;9.82;1.15;;;7.10;99.90;;;;;;5011015;28;20077;-67
2022/12/27 14:12:37;;;;;;;6.35;1.25;;;6.90;99.90;;;;;;5010780;28;20046;-66
2022/12/27 14:15:05;;;;;;;8.20;1.35;;;6.80;99.90;;;;;;5007524;28;20060;-71
2022/12/27 14:17:37;;;;;;;8.30;1.10;;;6.80;99.90;;;;;;5006904;28;20525;-66
2022/12/27 14:20:08;;;;;;;5.18;1.23;;;6.90;99.90;;;;;;5005319;28;20026;-71
2022/12/27 14:22:34;;;;;;;5.20;1.17;;;6.90;99.90;;;;;;4995393;28;20531;-66
2022/12/27 14:25:34;;;;;;;7.88;1.27;;;6.70;99.90;;;;;;4993838;28;20078;-65
2022/12/27 14:28:14;;;;;;;3.53;0.97;;;6.50;99.90;;;;;;5008152;28;20387;-65
2022/12/27 14:31:26;;;;;;;8.48;1.30;;;6.30;99.90;;;;;;5010733;28;20044;-65
2022/12/27 14:34:39;;;;;;;6.10;1.40;;;6.30;99.90;;;;;;5004039;28;20042;-66
2022/12/27 14:37:33;;;;;;;6.78;1.17;;;6.20;99.90;;;;;;5001071;28;20042;-69
2022/12/27 14:40:32;;;;;;;5.03;0.95;;;6.30;99.90;;;;;;4997707;28;20161;-66
2022/12/27 14:43:09;;;;;;;5.75;1.20;;;6.40;99.90;;;;;;5005310;28;20471;-64
2022/12/27 14:45:50;;;;;;;4.90;0.80;;;6.30;99.90;;;;;;5005957;28;20048;-65
2022/12/27 14:48:18;;;;;;;4.00;1.23;;;6.30;99.90;;;;;;5011627;28;20470;-64
2022/12/27 14:51:17;;;;;;;7.47;1.10;;;6.20;99.90;;;;;;5010322;28;20030;-65
2022/12/27 14:53:52;;;;;;;2.63;0.98;;;6.20;99.90;;;;;;5006311;28;20068;-64
2022/12/27 14:56:35;;;;;;;5.28;0.98;;;6.10;99.90;;;;;;4994770;28;20389;-64
2022/12/27 14:59:33;;;;;;;4.20;1.00;;;6.00;99.90;;;;;;4996937;28;20550;-65
2022/12/27 15:02:17;;;;;;;2.92;0.98;;;6.00;99.90;;;;;;5010110;28;20088;-64
2022/12/27 15:05:15;;;;;;;5.00;1.33;;;5.90;99.90;;;;;;5010972;28;20057;-64
2022/12/27 15:08:10;;;;;;;6.05;1.10;;;5.90;99.90;;;;;;5016459;28;20049;-65
2022/12/27 15:10:48;;;;;;;4.45;1.00;;;5.90;99.90;;;;;;5030720;28;20034;-66
2022/12/27 15:13:25;;;;;;;4.32;1.00;;;5.80;99.90;;;;;;5030024;28;20033;-65